Time;durP1;ratioP1;P1;durP2;ratioP2;P2;SDS_P1;SDS_P2;PMS_P1;PMS_P2;Temp;Humidity;BMP_temperature;BMP_pressure;BME280_temperature;BME280_humidity;BME280_pressure;Samples;Min_cycle;Max_cycle;Signal;HPM_P1;HPM_P2
2022/08/03 00:01:09;;;;;;;2.60;0.65;;;;;26.30;101392.00;;;;5052151;28;20207;-76
2022/08/03 00:03:36;;;;;;;1.25;0.60;;;;;26.30;101388.00;;;;5051561;28;20188;-76
2022/08/03 00:06:03;;;;;;;2.75;0.50;;;;;26.20;101387.00;;;;5051769;28;20207;-76
2022/08/03 00:08:31;;;;;;;2.05;0.50;;;;;26.20;101389.00;;;;5050821;28;20207;-76
2022/08/03 00:10:58;;;;;;;2.78;0.47;;;;;26.20;101380.00;;;;5050521;28;20195;-76
2022/08/03 00:13:27;;;;;;;1.52;0.60;;;;;26.20;101382.00;;;;5047670;28;20195;-77
2022/08/03 00:15:54;;;;;;;1.73;0.60;;;;;26.20;101381.00;;;;5042620;28;20511;-76
2022/08/03 00:18:22;;;;;;;3.25;0.75;;;;;26.10;101384.00;;;;5050068;28;20195;-76
2022/08/03 00:20:49;;;;;;;1.17;0.60;;;;;26.10;101383.00;;;;5050698;28;20207;-76
2022/08/03 00:23:16;;;;;;;1.30;0.70;;;;;26.10;101376.00;;;;5051208;28;20191;-76
2022/08/03 00:25:44;;;;;;;1.60;0.80;;;;;26.10;101376.00;;;;5051310;28;20673;-76
2022/08/03 00:28:11;;;;;;;3.88;0.82;;;;;26.10;101375.00;;;;5051159;28;20200;-76
2022/08/03 00:30:40;;;;;;;2.63;0.57;;;;;26.00;101377.00;;;;5047750;28;20234;-76
2022/08/03 00:33:09;;;;;;;1.20;0.65;;;;;26.00;101371.00;;;;5048772;28;20219;-76
2022/08/03 00:35:36;;;;;;;1.23;0.68;;;;;26.00;101370.00;;;;5050365;28;20524;-76
2022/08/03 00:38:04;;;;;;;1.33;0.50;;;;;26.00;101372.00;;;;5049597;28;20207;-77
2022/08/03 00:40:31;;;;;;;3.45;0.55;;;;;26.00;101374.00;;;;5050166;28;20196;-76
2022/08/03 00:42:59;;;;;;;3.50;1.02;;;;;25.90;101372.00;;;;5050312;28;20613;-76
2022/08/03 00:45:30;;;;;;;2.75;0.98;;;;;25.90;101377.00;;;;5050207;28;20670;-76
2022/08/03 00:47:59;;;;;;;2.55;0.75;;;;;25.90;101375.00;;;;5037844;28;20711;-76
2022/08/03 00:50:28;;;;;;;2.25;0.80;;;;;25.90;101377.00;;;;5034823;28;20685;-76
2022/08/03 00:52:57;;;;;;;1.70;0.73;;;;;25.90;101371.00;;;;5050583;28;20188;-76
2022/08/03 00:55:25;;;;;;;3.45;0.63;;;;;25.80;101364.00;;;;5049546;28;20214;-76
2022/08/03 00:57:53;;;;;;;2.78;0.98;;;;;25.80;101370.00;;;;5049773;28;20219;-76
2022/08/03 01:00:23;;;;;;;3.83;1.00;;;;;25.80;101362.00;;;;5050174;28;20206;-76
2022/08/03 01:02:51;;;;;;;1.23;0.45;;;;;25.80;101363.00;;;;5050451;28;20215;-76
2022/08/03 01:05:21;;;;;;;2.65;0.70;;;;;25.70;101365.00;;;;5034131;28;20788;-76
2022/08/03 01:08:02;;;;;;;1.83;0.80;;;;;25.70;101361.00;;;;5043523;28;20211;-76
2022/08/03 01:10:37;;;;;;;2.08;0.55;;;;;25.70;101364.00;;;;5049715;28;20743;-76
2022/08/03 01:13:17;;;;;;;2.03;0.70;;;;;25.70;101359.00;;;;5049908;28;20198;-76
2022/08/03 01:15:52;;;;;;;2.95;0.85;;;;;25.70;101363.00;;;;5049889;28;20237;-76
2022/08/03 01:18:26;;;;;;;3.22;0.80;;;;;25.60;101367.00;;;;5049610;28;20203;-76
2022/08/03 01:20:59;;;;;;;2.15;0.80;;;;;25.60;101356.00;;;;5045965;28;20200;-76
2022/08/03 01:23:54;;;;;;;2.08;0.75;;;;;25.50;101359.00;;;;5047567;28;20219;-76
2022/08/03 01:26:53;;;;;;;1.75;1.05;;;;;25.50;101352.00;;;;5029511;28;20207;-76
2022/08/03 01:30:00;;;;;;;5.15;0.90;;;;;25.40;101358.00;;;;5040369;28;20229;-76
2022/08/03 01:32:36;;;;;;;1.70;0.57;;;;;25.50;101351.00;;;;5039601;28;20581;-76
2022/08/03 01:35:08;;;;;;;0.68;0.60;;;;;25.50;101358.00;;;;5049984;28;20975;-76
2022/08/03 01:37:41;;;;;;;1.17;0.50;;;;;25.50;101355.00;;;;5048263;28;20188;-76
2022/08/03 01:40:14;;;;;;;2.42;0.95;;;;;25.50;101358.00;;;;5032024;28;20204;-76
2022/08/03 01:42:43;;;;;;;1.88;0.90;;;;;25.50;101362.00;;;;5049522;28;20215;-76
2022/08/03 01:45:16;;;;;;;2.15;0.95;;;;;25.40;101350.00;;;;5050024;28;20199;-76
2022/08/03 01:47:46;;;;;;;1.67;0.65;;;;;25.40;101350.00;;;;5032502;28;20266;-76
2022/08/03 01:50:14;;;;;;;2.47;0.80;;;;;25.40;101336.00;;;;5049375;28;20580;-76
2022/08/03 01:52:43;;;;;;;4.20;0.95;;;;;25.40;101347.00;;;;5049515;28;20191;-76
2022/08/03 01:55:13;;;;;;;3.00;0.70;;;;;25.40;101340.00;;;;5046407;28;20756;-76
2022/08/03 01:57:44;;;;;;;1.27;0.73;;;;;25.30;101343.00;;;;5048536;28;20608;-76
2022/08/03 02:00:18;;;;;;;3.47;0.80;;;;;25.30;101340.00;;;;5049201;28;20218;-76
2022/08/03 02:02:49;;;;;;;1.38;0.63;;;;;25.30;101346.00;;;;5049336;28;20294;-75
2022/08/03 02:05:19;;;;;;;4.68;1.00;;;;;25.30;101341.00;;;;5049419;28;20200;-75
2022/08/03 02:07:47;;;;;;;3.60;0.88;;;;;25.30;101343.00;;;;5048307;28;20712;-76
2022/08/03 02:10:18;;;;;;;1.25;0.75;;;;;25.30;101347.00;;;;5048311;28;20231;-76
2022/08/03 02:12:47;;;;;;;5.18;0.70;;;;;25.30;101345.00;;;;5037852;28;20701;-75
2022/08/03 02:15:18;;;;;;;5.88;1.17;;;;;25.20;101344.00;;;;5047565;28;20764;-76
2022/08/03 02:17:47;;;;;;;1.30;0.85;;;;;25.20;101348.00;;;;5049484;28;20200;-76
2022/08/03 02:20:16;;;;;;;2.97;1.05;;;;;25.20;101340.00;;;;5049163;28;20195;-76
2022/08/03 02:22:44;;;;;;;2.75;0.80;;;;;25.20;101346.00;;;;5048696;28;20200;-76
2022/08/03 02:25:13;;;;;;;1.92;0.75;;;;;25.20;101340.00;;;;5047804;28;20188;-76
2022/08/03 02:27:46;;;;;;;3.40;0.70;;;;;25.20;101341.00;;;;5029097;28;20188;-75
2022/08/03 02:30:14;;;;;;;3.47;1.30;;;;;25.20;101336.00;;;;5042602;28;20227;-76
2022/08/03 02:32:48;;;;;;;1.48;0.95;;;;;25.10;101338.00;;;;5048813;28;20204;-75
2022/08/03 02:35:18;;;;;;;3.38;1.15;;;;;25.10;101338.00;;;;5048394;28;20547;-76
2022/08/03 02:37:51;;;;;;;1.90;1.02;;;;;25.10;101328.00;;;;5048103;28;20285;-75
2022/08/03 02:40:20;;;;;;;2.80;1.13;;;;;25.10;101328.00;;;;5048275;28;20192;-76
2022/08/03 02:42:53;;;;;;;3.22;1.00;;;;;25.10;101321.00;;;;5048116;28;20191;-76
2022/08/03 02:45:22;;;;;;;2.95;1.10;;;;;25.10;101326.00;;;;5048919;28;20203;-76
2022/08/03 02:47:55;;;;;;;5.28;1.42;;;;;25.00;101315.00;;;;5047187;28;20578;-76
2022/08/03 02:50:24;;;;;;;1.85;1.23;;;;;25.10;101315.00;;;;5045665;28;20227;-76
2022/08/03 02:52:52;;;;;;;2.33;1.20;;;;;25.10;101317.00;;;;5047312;28;20654;-76
2022/08/03 02:55:21;;;;;;;5.82;1.40;;;;;25.00;101310.00;;;;5047267;28;20204;-76
2022/08/03 02:57:49;;;;;;;2.78;1.27;;;;;25.00;101314.00;;;;5048045;28;20223;-76
2022/08/03 03:00:17;;;;;;;2.92;1.00;;;;;25.00;101307.00;;;;5047530;28;20195;-77
2022/08/03 03:02:45;;;;;;;2.95;1.30;;;;;25.00;101318.00;;;;5042679;28;20642;-76
2022/08/03 03:05:15;;;;;;;1.80;1.05;;;;;24.90;101312.00;;;;5048156;28;20211;-76
2022/08/03 03:07:43;;;;;;;3.35;0.90;;;;;24.90;101303.00;;;;5047765;28;20215;-76
2022/08/03 03:10:11;;;;;;;4.05;1.00;;;;;24.90;101305.00;;;;5047909;28;20223;-76
2022/08/03 03:12:40;;;;;;;4.30;1.45;;;;;24.90;101310.00;;;;5031101;28;20737;-76
2022/08/03 03:15:08;;;;;;;3.35;1.35;;;;;24.90;101300.00;;;;5047344;28;20208;-76
2022/08/03 03:17:37;;;;;;;2.38;1.13;;;;;24.90;101301.00;;;;5046873;28;20207;-76
2022/08/03 03:20:05;;;;;;;4.55;1.20;;;;;24.90;101310.00;;;;5042757;28;20212;-76
2022/08/03 03:22:35;;;;;;;3.58;1.30;;;;;24.80;101305.00;;;;5047187;28;20229;-76
2022/08/03 03:25:03;;;;;;;3.08;1.00;;;;;24.90;101303.00;;;;5047380;28;20203;-76
2022/08/03 03:27:32;;;;;;;3.08;1.20;;;;;24.80;101302.00;;;;5040255;28;20226;-76
2022/08/03 03:30:00;;;;;;;3.78;1.00;;;;;24.80;101298.00;;;;5047498;28;20223;-77
2022/08/03 03:32:28;;;;;;;2.25;0.90;;;;;24.80;101303.00;;;;5046707;28;20211;-76
2022/08/03 03:34:57;;;;;;;1.77;1.05;;;;;24.80;101304.00;;;;5047950;28;20207;-76
2022/08/03 03:37:26;;;;;;;1.52;1.30;;;;;24.80;101299.00;;;;5039067;28;20258;-76
2022/08/03 03:39:55;;;;;;;2.15;0.98;;;;;24.80;101300.00;;;;5027479;28;20227;-76
2022/08/03 03:42:23;;;;;;;5.68;1.45;;;;;24.80;101300.00;;;;5042419;28;20195;-76
2022/08/03 03:44:50;;;;;;;4.32;1.27;;;;;24.70;101303.00;;;;5038547;28;20191;-76
2022/08/03 03:47:18;;;;;;;4.97;1.23;;;;;24.80;101309.00;;;;5047567;28;20191;-76
2022/08/03 03:49:45;;;;;;;3.30;1.38;;;;;24.70;101306.00;;;;5047922;28;20285;-76
2022/08/03 03:52:13;;;;;;;4.07;1.25;;;;;24.70;101305.00;;;;5046920;28;20562;-76
2022/08/03 03:54:41;;;;;;;2.47;1.05;;;;;24.70;101305.00;;;;5039953;28;20212;-76
2022/08/03 03:57:11;;;;;;;4.00;1.23;;;;;24.70;101304.00;;;;5046353;28;20251;-76
2022/08/03 03:59:39;;;;;;;3.20;1.20;;;;;24.70;101307.00;;;;5048061;28;20254;-76
2022/08/03 04:02:07;;;;;;;4.43;1.25;;;;;24.70;101308.00;;;;5046712;28;20198;-76
2022/08/03 04:13:02;;;;;;;1.98;0.93;;;;;24.50;101304.00;;;;5045580;28;20203;-76
2022/08/03 04:15:31;;;;;;;3.22;0.98;;;;;24.60;101311.00;;;;5027323;28;20201;-76
2022/08/03 04:18:01;;;;;;;4.70;1.02;;;;;24.60;101308.00;;;;5042478;28;20206;-76
2022/08/03 04:20:32;;;;;;;4.00;0.90;;;;;24.50;101311.00;;;;5046880;28;20222;-76
2022/08/03 04:23:01;;;;;;;5.25;1.63;;;;;24.50;101313.00;;;;5047157;28;20689;-76
2022/08/03 04:25:32;;;;;;;3.08;1.00;;;;;24.50;101306.00;;;;5046303;28;20196;-76
2022/08/03 04:28:02;;;;;;;3.92;1.38;;;;;24.50;101310.00;;;;5042545;28;20208;-76
2022/08/03 04:30:31;;;;;;;5.47;1.17;;;;;24.50;101310.00;;;;5045374;28;20219;-76
2022/08/03 04:33:01;;;;;;;1.45;0.98;;;;;24.50;101314.00;;;;5050627;28;20290;-76
2022/08/03 04:35:34;;;;;;;1.13;0.98;;;;;24.50;101312.00;;;;5050085;28;20192;-76
2022/08/03 04:38:06;;;;;;;3.83;1.50;;;;;24.50;101316.00;;;;5050901;28;20210;-76
2022/08/03 04:40:36;;;;;;;1.83;1.58;;;;;24.50;101312.00;;;;5032475;28;20204;-76
2022/08/03 04:43:07;;;;;;;3.28;1.05;;;;;24.50;101305.00;;;;5050801;28;20199;-76
2022/08/03 04:45:35;;;;;;;6.18;1.25;;;;;24.60;101310.00;;;;5041086;28;20215;-76
2022/08/03 04:48:03;;;;;;;6.13;1.38;;;;;24.60;101311.00;;;;5045950;28;20207;-76
2022/08/03 04:50:31;;;;;;;4.00;1.35;;;;;24.60;101308.00;;;;5049726;28;20602;-77
2022/08/03 04:52:59;;;;;;;4.10;1.33;;;;;24.60;101317.00;;;;5051020;28;20209;-76
2022/08/03 04:55:27;;;;;;;7.43;1.27;;;;;24.60;101315.00;;;;5049789;28;20192;-76
2022/08/03 04:57:54;;;;;;;2.47;1.23;;;;;24.60;101319.00;;;;5050240;28;20255;-76
2022/08/03 05:00:24;;;;;;;3.35;0.80;;;;;24.60;101324.00;;;;5049134;28;20203;-76
2022/08/03 05:02:52;;;;;;;3.08;0.93;;;;;24.70;101322.00;;;;5041885;28;20575;-76
2022/08/03 05:05:20;;;;;;;4.55;1.33;;;;;24.70;101323.00;;;;5050157;28;20607;-76
2022/08/03 05:07:47;;;;;;;3.78;1.08;;;;;24.70;101329.00;;;;5049391;28;20211;-76
2022/08/03 05:10:15;;;;;;;7.78;2.10;;;;;24.70;101328.00;;;;5049727;28;20435;-76
2022/08/03 05:12:42;;;;;;;3.95;1.50;;;;;24.70;101329.00;;;;5049431;28;20206;-76
2022/08/03 05:15:10;;;;;;;4.00;1.25;;;;;24.70;101330.00;;;;5050966;28;20565;-76
2022/08/03 05:17:39;;;;;;;2.63;1.20;;;;;24.70;101334.00;;;;5049595;28;21055;-76
2022/08/03 05:20:10;;;;;;;3.10;0.98;;;;;24.80;101336.00;;;;5036726;28;20204;-77
2022/08/03 05:22:38;;;;;;;5.18;1.58;;;;;24.80;101336.00;;;;5047000;28;20192;-76
2022/08/03 05:25:06;;;;;;;5.72;1.55;;;;;24.80;101342.00;;;;5050155;28;20678;-76
2022/08/03 05:27:33;;;;;;;4.88;1.60;;;;;24.80;101339.00;;;;5037905;28;20212;-76
2022/08/03 05:30:00;;;;;;;4.22;1.45;;;;;24.90;101338.00;;;;5045372;28;20207;-76
2022/08/03 05:32:28;;;;;;;6.40;1.85;;;;;24.90;101335.00;;;;5048929;28;20218;-76
2022/08/03 05:34:56;;;;;;;4.47;1.48;;;;;24.90;101342.00;;;;5049521;28;20195;-76
2022/08/03 05:37:23;;;;;;;4.93;1.50;;;;;25.00;101345.00;;;;5047867;28;20207;-76
2022/08/03 05:39:51;;;;;;;3.67;1.85;;;;;25.10;101350.00;;;;5050152;28;20204;-76
2022/08/03 05:42:18;;;;;;;6.10;1.77;;;;;25.10;101341.00;;;;5048265;28;20200;-77
2022/08/03 05:44:45;;;;;;;8.85;1.50;;;;;25.20;101348.00;;;;5048162;28;20677;-76
2022/08/03 05:47:12;;;;;;;6.68;1.95;;;;;25.20;101346.00;;;;5048863;28;20195;-77
2022/08/03 05:49:39;;;;;;;5.25;2.20;;;;;25.30;101350.00;;;;5049765;28;20214;-76
2022/08/03 05:52:08;;;;;;;6.25;1.70;;;;;25.30;101359.00;;;;5049444;28;20230;-77
2022/08/03 05:54:36;;;;;;;6.07;1.65;;;;;25.40;101343.00;;;;5046913;28;20243;-76
2022/08/03 05:57:03;;;;;;;5.97;2.33;;;;;25.40;101355.00;;;;5048355;28;20241;-76
2022/08/03 05:59:30;;;;;;;3.22;2.20;;;;;25.40;101350.00;;;;5049244;28;20224;-76
2022/08/03 06:01:57;;;;;;;6.97;2.08;;;;;25.50;101345.00;;;;5048796;28;20200;-76
2022/08/03 06:04:24;;;;;;;6.28;2.28;;;;;25.50;101346.00;;;;5048958;28;20693;-76
2022/08/03 06:06:52;;;;;;;4.82;2.22;;;;;25.60;101347.00;;;;5049227;28;20195;-76
2022/08/03 06:09:21;;;;;;;4.97;1.80;;;;;25.70;101344.00;;;;5048927;28;20200;-76
2022/08/03 06:11:49;;;;;;;3.83;1.70;;;;;25.80;101349.00;;;;5036348;28;20230;-76
2022/08/03 06:14:16;;;;;;;6.65;2.08;;;;;25.80;101356.00;;;;5048663;28;20191;-76
2022/08/03 06:16:43;;;;;;;7.18;2.00;;;;;25.90;101350.00;;;;5046280;28;20411;-77
2022/08/03 06:19:10;;;;;;;5.32;1.33;;;;;26.00;101350.00;;;;5046698;28;20204;-77
2022/08/03 06:21:37;;;;;;;6.93;1.77;;;;;26.00;101352.00;;;;5047722;28;20847;-77
2022/08/03 06:24:05;;;;;;;4.13;1.75;;;;;26.10;101351.00;;;;5048648;28;20211;-77
2022/08/03 06:26:34;;;;;;;8.82;1.25;;;;;26.20;101358.00;;;;5048454;28;20223;-77
2022/08/03 06:29:01;;;;;;;4.25;1.50;;;;;26.30;101364.00;;;;5048902;28;20610;-76
2022/08/03 06:31:29;;;;;;;3.88;1.35;;;;;26.30;101369.00;;;;5047649;28;20220;-77
2022/08/03 06:33:56;;;;;;;6.25;1.67;;;;;26.30;101369.00;;;;5048209;28;20211;-77
2022/08/03 06:36:24;;;;;;;5.97;1.60;;;;;26.40;101361.00;;;;5048335;28;20192;-77
2022/08/03 06:38:52;;;;;;;7.55;2.10;;;;;26.50;101363.00;;;;5048429;28;20198;-76
2022/08/03 06:41:19;;;;;;;5.10;1.98;;;;;26.50;101367.00;;;;5047920;28;20203;-76
2022/08/03 06:43:48;;;;;;;3.90;1.83;;;;;26.60;101362.00;;;;5045352;28;20669;-77
2022/08/03 06:46:15;;;;;;;5.43;1.42;;;;;26.60;101359.00;;;;5030277;28;20215;-77
2022/08/03 06:48:42;;;;;;;4.45;1.80;;;;;26.70;101363.00;;;;5048203;28;20698;-76
2022/08/03 06:51:09;;;;;;;4.03;1.67;;;;;26.70;101361.00;;;;5047380;28;20230;-76
2022/08/03 06:53:37;;;;;;;3.97;1.58;;;;;26.80;101352.00;;;;5047606;28;20257;-76
2022/08/03 06:56:05;;;;;;;7.60;2.00;;;;;26.90;101362.00;;;;5042092;28;20216;-76
2022/08/03 06:58:33;;;;;;;4.13;1.58;;;;;26.90;101361.00;;;;5047459;28;20235;-77
2022/08/03 07:01:01;;;;;;;7.90;1.63;;;;;27.00;101352.00;;;;5043279;28;20211;-76
2022/08/03 07:03:29;;;;;;;6.80;2.03;;;;;27.00;101356.00;;;;5041564;28;20199;-76
2022/08/03 07:05:56;;;;;;;7.53;2.35;;;;;27.10;101360.00;;;;5044440;28;20287;-76
2022/08/03 07:08:24;;;;;;;6.80;1.98;;;;;27.20;101367.00;;;;5044530;28;20210;-77
2022/08/03 07:10:51;;;;;;;2.88;1.45;;;;;27.20;101367.00;;;;5047649;28;20690;-77
2022/08/03 07:13:18;;;;;;;7.28;1.95;;;;;27.30;101365.00;;;;5047287;28;20192;-77
2022/08/03 07:15:46;;;;;;;9.20;2.42;;;;;27.30;101372.00;;;;5048289;28;20274;-77
2022/08/03 07:18:14;;;;;;;5.70;1.50;;;;;27.40;101374.00;;;;5040796;28;20206;-76
2022/08/03 07:20:42;;;;;;;3.17;1.33;;;;;27.40;101375.00;;;;5036068;28;20196;-77
2022/08/03 07:23:09;;;;;;;7.15;1.90;;;;;27.50;101382.00;;;;5047263;28;20617;-76
2022/08/03 07:25:36;;;;;;;4.47;1.92;;;;;27.50;101382.00;;;;5047879;28;20311;-77
2022/08/03 07:28:04;;;;;;;5.88;1.30;;;;;27.60;101394.00;;;;5047729;28;20204;-76
2022/08/03 07:30:32;;;;;;;5.07;1.98;;;;;27.70;101390.00;;;;5047032;28;20204;-77
2022/08/03 07:32:59;;;;;;;6.40;2.25;;;;;27.80;101387.00;;;;5046690;28;20230;-76
2022/08/03 07:35:27;;;;;;;8.00;1.70;;;;;27.80;101395.00;;;;5044597;28;20196;-77
2022/08/03 07:37:55;;;;;;;5.28;1.45;;;;;27.90;101391.00;;;;5047326;28;20203;-77
2022/08/03 07:40:22;;;;;;;9.02;2.58;;;;;28.00;101392.00;;;;5047568;28;20210;-76
2022/08/03 07:42:49;;;;;;;4.30;1.85;;;;;28.00;101395.00;;;;5047003;28;20196;-77
2022/08/03 07:45:17;;;;;;;7.53;1.73;;;;;28.10;101396.00;;;;5047237;28;20200;-77
2022/08/03 07:47:44;;;;;;;5.97;2.00;;;;;28.20;101397.00;;;;5040821;28;20662;-77
2022/08/03 07:50:11;;;;;;;9.23;1.67;;;;;28.30;101395.00;;;;5032459;28;20200;-77
2022/08/03 07:52:50;;;;;;;8.38;1.67;;;;;28.30;101395.00;;;;5037290;28;20702;-77
2022/08/03 07:55:18;;;;;;;9.43;2.60;;;;;28.50;101395.00;;;;5035121;28;20209;-77
2022/08/03 07:57:45;;;;;;;8.10;1.58;;;;;28.50;101394.00;;;;5047093;28;20224;-77
2022/08/03 08:00:17;;;;;;;6.78;1.42;;;;;28.60;101387.00;;;;5046974;28;20763;-77
2022/08/03 08:02:45;;;;;;;8.82;2.05;;;;;28.70;101392.00;;;;5046894;28;20651;-77
2022/08/03 08:05:13;;;;;;;8.18;1.67;;;;;28.80;101385.00;;;;5046873;28;20196;-77
2022/08/03 08:07:41;;;;;;;8.13;2.08;;;;;28.90;101390.00;;;;5049944;28;20578;-76
2022/08/03 08:10:10;;;;;;;8.02;1.98;;;;;29.00;101393.00;;;;5043723;28;20204;-77
2022/08/03 08:12:37;;;;;;;9.02;1.92;;;;;29.10;101393.00;;;;5050999;28;20228;-77
2022/08/03 08:15:06;;;;;;;6.65;1.17;;;;;29.20;101386.00;;;;5051510;28;20293;-77
2022/08/03 08:17:42;;;;;;;8.90;1.92;;;;;29.20;101383.00;;;;5045669;28;20397;-77
2022/08/03 08:20:16;;;;;;;9.63;1.88;;;;;29.30;101386.00;;;;5051814;28;20260;-77
2022/08/03 08:22:44;;;;;;;6.70;1.73;;;;;29.40;101390.00;;;;5051948;28;20194;-76
2022/08/03 08:25:12;;;;;;;5.72;1.52;;;;;29.60;101390.00;;;;5051401;28;20214;-77
2022/08/03 08:27:46;;;;;;;13.15;1.80;;;;;29.60;101395.00;;;;5035024;28;20207;-77
2022/08/03 08:30:15;;;;;;;9.88;2.22;;;;;29.80;101386.00;;;;5050422;28;20206;-76
2022/08/03 08:32:49;;;;;;;6.88;1.50;;;;;29.80;101398.00;;;;5050886;28;20227;-77
2022/08/03 08:35:17;;;;;;;7.10;1.42;;;;;30.00;101399.00;;;;5050504;28;20196;-77
2022/08/03 08:37:46;;;;;;;4.93;1.75;;;;;30.00;101395.00;;;;5049148;28;20208;-78
2022/08/03 08:40:13;;;;;;;5.93;1.17;;;;;30.20;101396.00;;;;5049949;28;20242;-78
2022/08/03 08:42:44;;;;;;;9.10;1.63;;;;;30.30;101396.00;;;;5049348;28;20196;-77
2022/08/03 08:45:14;;;;;;;6.28;1.48;;;;;30.40;101399.00;;;;5050513;28;20622;-78
2022/08/03 08:47:46;;;;;;;6.45;2.00;;;;;30.50;101402.00;;;;5050615;28;20283;-77
2022/08/03 08:50:14;;;;;;;5.30;1.58;;;;;30.60;101401.00;;;;5050396;28;20207;-77
2022/08/03 08:52:43;;;;;;;6.75;1.55;;;;;30.70;101402.00;;;;5050330;28;20215;-78
2022/08/03 08:55:16;;;;;;;3.25;1.20;;;;;30.80;101411.00;;;;5050951;28;20207;-77
2022/08/03 08:57:47;;;;;;;7.28;1.50;;;;;30.90;101404.00;;;;5050135;28;20281;-77
2022/08/03 09:00:15;;;;;;;5.75;1.48;;;;;31.00;101406.00;;;;5043854;28;20592;-78
2022/08/03 09:02:44;;;;;;;11.68;1.65;;;;;31.10;101408.00;;;;5042421;28;20191;-78
2022/08/03 09:05:12;;;;;;;8.77;1.52;;;;;31.20;101403.00;;;;5050116;28;20572;-78
2022/08/03 09:07:39;;;;;;;9.80;2.28;;;;;31.30;101407.00;;;;5049857;28;20567;-78
2022/08/03 09:10:09;;;;;;;5.45;1.70;;;;;31.40;101404.00;;;;5049911;28;20203;-76
2022/08/03 09:12:43;;;;;;;5.80;1.65;;;;;31.50;101408.00;;;;5048604;28;20219;-76
2022/08/03 09:15:18;;;;;;;5.60;1.45;;;;;31.60;101409.00;;;;5047502;28;20596;-76
2022/08/03 09:17:46;;;;;;;10.95;1.90;;;;;31.70;101410.00;;;;5049300;28;20199;-76
2022/08/03 09:20:13;;;;;;;5.28;1.77;;;;;31.80;101401.00;;;;5050093;28;20728;-76
2022/08/03 09:22:54;;;;;;;5.95;1.40;;;;;31.80;101414.00;;;;5050078;28;20200;-76
2022/08/03 09:25:28;;;;;;;4.88;1.38;;;;;31.90;101405.00;;;;5049613;28;20239;-76
2022/08/03 09:28:09;;;;;;;6.22;1.45;;;;;31.90;101411.00;;;;5049295;28;20239;-76
2022/08/03 09:30:37;;;;;;;7.93;1.40;;;;;32.00;101406.00;;;;5049514;28;20211;-77
2022/08/03 09:33:06;;;;;;;8.18;1.38;;;;;32.10;101404.00;;;;5049692;28;20223;-78
2022/08/03 09:35:39;;;;;;;8.63;1.30;;;;;32.20;101406.00;;;;5041344;28;20212;-77
2022/08/03 09:38:11;;;;;;;5.93;1.45;;;;;32.30;101406.00;;;;5049766;28;20203;-77
2022/08/03 09:40:39;;;;;;;3.67;1.20;;;;;32.40;101411.00;;;;5048970;28;20200;-77
2022/08/03 09:43:08;;;;;;;4.78;1.98;;;;;32.50;101405.00;;;;5049719;28;20202;-77
2022/08/03 09:45:36;;;;;;;10.15;1.80;;;;;32.60;101403.00;;;;5048979;28;20202;-77
2022/08/03 09:48:22;;;;;;;7.05;1.55;;;;;32.60;101404.00;;;;5049653;28;20207;-76
2022/08/03 09:50:50;;;;;;;7.63;1.77;;;;;32.80;101404.00;;;;5045488;28;20207;-77
2022/08/03 09:53:18;;;;;;;4.75;1.42;;;;;32.90;101414.00;;;;5039710;28;20379;-77
2022/08/03 09:55:56;;;;;;;4.22;1.98;;;;;32.90;101406.00;;;;5049636;28;20227;-76
2022/08/03 09:58:26;;;;;;;7.78;1.45;;;;;33.00;101411.00;;;;5049451;28;20234;-77
2022/08/03 10:00:55;;;;;;;7.18;1.27;;;;;33.10;101405.00;;;;5049255;28;20195;-77
2022/08/03 10:03:23;;;;;;;6.05;1.73;;;;;33.20;101416.00;;;;5048349;28;20577;-77
2022/08/03 10:05:51;;;;;;;4.43;1.33;;;;;33.20;101412.00;;;;5049527;28;20699;-77
2022/08/03 10:08:20;;;;;;;7.65;1.83;;;;;33.30;101409.00;;;;5043523;28;20214;-77
2022/08/03 10:10:49;;;;;;;10.07;1.52;;;;;33.50;101414.00;;;;5049621;28;20199;-77
2022/08/03 10:13:18;;;;;;;5.40;1.77;;;;;33.50;101417.00;;;;5048800;28;20222;-77
2022/08/03 10:15:47;;;;;;;9.95;2.13;;;;;33.60;101413.00;;;;5048113;28;20209;-76
2022/08/03 10:18:15;;;;;;;5.53;1.60;;;;;33.70;101410.00;;;;5048715;28;20211;-77
2022/08/03 10:20:49;;;;;;;9.88;1.55;;;;;33.70;101407.00;;;;5048803;28;20199;-77
2022/08/03 10:23:18;;;;;;;7.97;1.23;;;;;33.80;101406.00;;;;5048989;28;20669;-77
2022/08/03 10:25:47;;;;;;;4.53;1.58;;;;;33.90;101407.00;;;;5037935;28;20207;-77
2022/08/03 10:28:19;;;;;;;7.28;1.17;;;;;34.00;101408.00;;;;5046696;28;20202;-77
2022/08/03 10:30:52;;;;;;;6.07;1.40;;;;;34.00;101413.00;;;;5047882;28;20195;-77
2022/08/03 10:33:21;;;;;;;2.30;1.15;;;;;34.20;101402.00;;;;5048073;28;20321;-77
2022/08/03 10:35:54;;;;;;;6.93;1.25;;;;;34.20;101403.00;;;;5048503;28;20673;-77
2022/08/03 10:38:28;;;;;;;6.07;1.88;;;;;34.30;101409.00;;;;5048926;28;20207;-76
2022/08/03 10:40:57;;;;;;;3.40;1.23;;;;;34.30;101404.00;;;;5048329;28;20190;-77
2022/08/03 10:43:28;;;;;;;7.38;1.10;;;;;34.30;101402.00;;;;5048675;28;20214;-77
2022/08/03 10:45:57;;;;;;;1.95;0.90;;;;;34.30;101406.00;;;;5048303;28;20672;-77
2022/08/03 10:48:25;;;;;;;7.25;2.45;;;;;34.40;101398.00;;;;5048299;28;20202;-77
2022/08/03 10:50:53;;;;;;;6.53;1.80;;;;;34.40;101394.00;;;;5049123;28;20230;-77
2022/08/03 10:53:35;;;;;;;7.72;1.83;;;;;34.30;101391.00;;;;5048639;28;20230;-78
2022/08/03 10:58:50;;;;;;;5.05;1.42;;;;;34.30;101399.00;;;;5048374;28;20270;-78
2022/08/03 11:01:39;;;;;;;3.65;1.40;;;;;34.30;101399.00;;;;5048128;28;20196;-77
2022/08/03 11:04:17;;;;;;;4.60;1.45;;;;;34.20;101395.00;;;;5048289;28;20191;-78
2022/08/03 11:06:46;;;;;;;7.40;1.17;;;;;34.30;101395.00;;;;5048221;28;20731;-77
2022/08/03 11:09:19;;;;;;;8.18;1.02;;;;;34.20;101390.00;;;;5048869;28;20210;-77
2022/08/03 11:11:48;;;;;;;4.22;0.98;;;;;34.30;101390.00;;;;5048903;28;20199;-77
2022/08/03 11:14:18;;;;;;;3.80;1.05;;;;;34.30;101397.00;;;;5047841;28;20195;-77
2022/08/03 11:16:49;;;;;;;5.70;1.27;;;;;34.20;101394.00;;;;5048284;28;20344;-76
2022/08/03 11:19:21;;;;;;;5.22;1.35;;;;;34.30;101388.00;;;;5048364;28;20262;-77
2022/08/03 11:21:58;;;;;;;4.00;1.23;;;;;34.20;101390.00;;;;5047798;28;20221;-76
2022/08/03 11:24:57;;;;;;;6.22;1.25;;;;;34.10;101398.00;;;;5048590;28;20203;-76
2022/08/03 11:27:26;;;;;;;9.45;1.65;;;;;34.20;101393.00;;;;5047926;28;20283;-77
2022/08/03 11:29:59;;;;;;;4.82;1.35;;;;;34.20;101390.00;;;;5049040;28;20202;-77
2022/08/03 11:32:52;;;;;;;4.10;0.95;;;;;34.10;101389.00;;;;5047637;28;20273;-77
2022/08/03 11:35:21;;;;;;;5.57;1.15;;;;;34.30;101394.00;;;;5037240;28;20205;-76
2022/08/03 11:38:23;;;;;;;3.75;0.80;;;;;34.20;101383.00;;;;5047596;28;20206;-76
2022/08/03 11:40:52;;;;;;;5.18;1.58;;;;;34.30;101391.00;;;;5047181;28;20723;-78
2022/08/03 11:43:45;;;;;;;4.05;1.30;;;;;34.20;101387.00;;;;5047200;28;21081;-77
2022/08/03 11:46:17;;;;;;;4.15;1.00;;;;;34.30;101382.00;;;;5047454;28;20191;-76
2022/08/03 11:48:47;;;;;;;3.50;1.00;;;;;34.40;101395.00;;;;5048089;28;20187;-75
2022/08/03 11:51:22;;;;;;;3.58;1.10;;;;;34.30;101395.00;;;;5043144;28;20684;-77
2022/08/03 11:53:53;;;;;;;4.90;0.65;;;;;34.40;101395.00;;;;5045570;28;20288;-76
2022/08/03 11:56:20;;;;;;;4.82;1.30;;;;;34.40;101386.00;;;;5048079;28;20195;-77
2022/08/03 11:58:49;;;;;;;2.85;1.20;;;;;34.50;101391.00;;;;5042207;28;20219;-76
2022/08/03 12:01:16;;;;;;;3.85;1.00;;;;;34.50;101398.00;;;;5043434;28;20207;-76
2022/08/03 12:03:45;;;;;;;1.73;0.77;;;;;34.50;101393.00;;;;5044518;28;20272;-76
2022/08/03 12:06:14;;;;;;;4.05;0.88;;;;;34.50;101388.00;;;;5031697;28;20210;-77
2022/08/03 12:08:43;;;;;;;6.50;0.80;;;;;34.50;101390.00;;;;5030101;28;20203;-77
2022/08/03 12:11:12;;;;;;;2.65;0.77;;;;;34.50;101389.00;;;;5029969;28;20192;-77
2022/08/03 12:13:41;;;;;;;4.18;1.58;;;;;34.60;101391.00;;;;5047889;28;20226;-78
2022/08/03 12:16:09;;;;;;;2.60;0.77;;;;;34.60;101387.00;;;;5047556;28;20210;-78
2022/08/03 12:18:36;;;;;;;6.05;1.30;;;;;34.70;101382.00;;;;5046800;28;20692;-77
2022/08/03 12:21:08;;;;;;;3.17;1.00;;;;;34.70;101383.00;;;;5047939;28;20198;-77
2022/08/03 12:23:36;;;;;;;3.28;0.95;;;;;34.80;101389.00;;;;5046888;28;20187;-78
2022/08/03 12:26:05;;;;;;;3.05;0.80;;;;;34.80;101389.00;;;;5028468;28;20199;-77
2022/08/03 12:28:33;;;;;;;4.25;0.80;;;;;34.90;101393.00;;;;5047483;28;20199;-77
2022/08/03 12:31:05;;;;;;;5.50;1.23;;;;;34.90;101382.00;;;;5047594;28;20214;-77
2022/08/03 12:33:32;;;;;;;4.25;1.15;;;;;34.90;101386.00;;;;5047239;28;20253;-78